Time;durP1;ratioP1;P1;durP2;ratioP2;P2;SDS_P1;SDS_P2;PMS_P1;PMS_P2;Temp;Humidity;BMP_temperature;BMP_pressure;BME280_temperature;BME280_humidity;BME280_pressure;Samples;Min_cycle;Max_cycle;Signal;HPM_P1;HPM_P2
2021/01/16 00:00:40;;;;;;;11.10;7.85;;;-3.60;59.20;;;;;;5074708;28;20021;-58
2021/01/16 00:03:10;;;;;;;12.77;8.35;;;-3.60;58.50;;;;;;5070620;28;20469;-58
2021/01/16 00:05:36;;;;;;;16.80;9.60;;;-3.60;58.60;;;;;;5073507;28;20020;-59
2021/01/16 00:08:13;;;;;;;14.68;9.48;;;-3.60;59.30;;;;;;5068991;28;20024;-58
2021/01/16 00:10:41;;;;;;;14.43;8.80;;;-3.60;58.90;;;;;;5074378;28;20012;-57
2021/01/16 00:13:14;;;;;;;16.95;9.52;;;-3.60;59.10;;;;;;5071673;28;20029;-57
2021/01/16 00:15:40;;;;;;;15.60;9.68;;;-3.60;59.00;;;;;;5074095;28;20036;-59
2021/01/16 00:18:08;;;;;;;15.27;9.52;;;-3.50;59.00;;;;;;5073979;28;20024;-57
2021/01/16 00:20:36;;;;;;;15.88;10.05;;;-3.50;59.00;;;;;;5074425;28;20050;-57
2021/01/16 00:23:03;;;;;;;16.00;9.20;;;-3.50;58.90;;;;;;5061931;28;20111;-58
2021/01/16 00:25:29;;;;;;;15.40;8.73;;;-3.50;58.90;;;;;;5067857;28;20491;-57
2021/01/16 00:27:55;;;;;;;19.77;10.32;;;-3.50;59.00;;;;;;5073723;28;20020;-58
2021/01/16 00:30:24;;;;;;;19.08;10.00;;;-3.50;59.00;;;;;;5069190;28;20024;-58
2021/01/16 00:32:50;;;;;;;16.30;8.98;;;-3.50;59.20;;;;;;5071582;28;20032;-58
2021/01/16 00:35:17;;;;;;;15.30;8.75;;;-3.50;59.20;;;;;;5074107;28;20040;-58
2021/01/16 00:37:48;;;;;;;16.25;8.82;;;-3.50;59.30;;;;;;5068588;28;20025;-59
2021/01/16 00:40:16;;;;;;;13.85;9.15;;;-3.50;59.30;;;;;;5074253;28;20365;-55
2021/01/16 00:42:47;;;;;;;18.77;10.70;;;-3.50;59.30;;;;;;5073720;28;20024;-57
2021/01/16 00:45:14;;;;;;;14.93;8.57;;;-3.50;59.10;;;;;;5073732;28;20469;-59
2021/01/16 00:47:44;;;;;;;15.45;8.95;;;-3.50;59.30;;;;;;5073450;28;20024;-58
2021/01/16 00:50:12;;;;;;;17.35;10.18;;;-3.40;59.30;;;;;;5070821;28;20024;-58
2021/01/16 00:52:37;;;;;;;18.98;10.48;;;-3.40;59.30;;;;;;5073653;28;20024;-58
2021/01/16 00:55:08;;;;;;;15.63;9.07;;;-3.40;59.20;;;;;;5070868;28;20016;-59
2021/01/16 00:57:33;;;;;;;19.73;10.73;;;-3.40;59.00;;;;;;5071009;28;20059;-59
2021/01/16 00:59:59;;;;;;;17.85;9.85;;;-3.40;58.90;;;;;;5067401;28;20472;-58
2021/01/16 01:02:25;;;;;;;16.15;10.07;;;-3.40;59.00;;;;;;5072897;28;20440;-59
2021/01/16 01:04:51;;;;;;;16.73;9.55;;;-3.40;59.10;;;;;;5071586;28;20025;-59
2021/01/16 01:07:17;;;;;;;11.27;7.78;;;-3.40;59.10;;;;;;5059149;28;20110;-58
2021/01/16 01:09:44;;;;;;;12.50;7.55;;;-3.40;59.00;;;;;;5066756;28;20028;-59
2021/01/16 01:12:11;;;;;;;16.05;9.65;;;-3.40;58.50;;;;;;5067194;28;20066;-58
2021/01/16 01:14:38;;;;;;;15.35;8.90;;;-3.40;58.60;;;;;;5063928;28;20016;-59
2021/01/16 01:17:24;;;;;;;12.98;8.52;;;-3.40;58.80;;;;;;5070303;28;20131;-58
2021/01/16 01:19:49;;;;;;;12.50;8.13;;;-3.40;58.70;;;;;;5070615;28;20024;-59
2021/01/16 01:22:15;;;;;;;11.90;8.15;;;-3.40;58.90;;;;;;5073016;28;20070;-58
2021/01/16 01:24:41;;;;;;;14.80;9.98;;;-3.40;58.70;;;;;;5073381;28;20024;-58
2021/01/16 01:27:07;;;;;;;13.10;7.72;;;-3.50;59.00;;;;;;5072628;28;20415;-59
2021/01/16 01:29:34;;;;;;;13.38;7.63;;;-3.50;58.90;;;;;;5063756;28;20024;-57
2021/01/16 01:32:00;;;;;;;13.00;8.45;;;-3.50;59.50;;;;;;5070871;28;20495;-58
2021/01/16 01:34:26;;;;;;;13.65;8.02;;;-3.50;58.90;;;;;;5066059;28;20021;-58
2021/01/16 01:36:51;;;;;;;15.95;10.02;;;-3.50;59.10;;;;;;5065501;28;20024;-57
2021/01/16 01:39:17;;;;;;;12.05;7.72;;;-3.50;58.90;;;;;;5071614;28;20047;-58
2021/01/16 01:41:43;;;;;;;12.18;7.25;;;-3.40;59.00;;;;;;5073089;28;20028;-59
2021/01/16 01:44:09;;;;;;;13.23;8.88;;;-3.40;58.80;;;;;;5059023;28;20044;-58
2021/01/16 01:46:36;;;;;;;13.38;8.27;;;-3.40;58.90;;;;;;5072835;28;20114;-59
2021/01/16 01:49:03;;;;;;;17.25;9.82;;;-3.30;59.10;;;;;;5068758;28;20047;-59
2021/01/16 01:51:31;;;;;;;13.77;8.90;;;-3.30;59.00;;;;;;5072867;28;20103;-59
2021/01/16 01:53:59;;;;;;;17.83;9.80;;;-3.30;58.90;;;;;;5072158;28;20388;-58
2021/01/16 01:56:25;;;;;;;12.65;8.05;;;-3.30;58.90;;;;;;5072617;28;20071;-59
2021/01/16 01:58:53;;;;;;;13.38;8.50;;;-3.20;58.90;;;;;;5072462;28;20036;-59
2021/01/16 02:01:19;;;;;;;15.43;7.95;;;-3.20;58.70;;;;;;5072090;28;20016;-59
2021/01/16 02:03:48;;;;;;;17.05;9.77;;;-3.20;58.50;;;;;;5072212;28;20426;-58
2021/01/16 02:06:15;;;;;;;15.68;10.05;;;-3.20;58.30;;;;;;5072192;28;20082;-59
2021/01/16 02:08:41;;;;;;;9.80;7.10;;;-3.20;58.40;;;;;;5072717;28;20465;-58
2021/01/16 02:11:07;;;;;;;13.25;8.13;;;-3.20;58.50;;;;;;5072586;28;20035;-57
2021/01/16 02:13:32;;;;;;;11.80;7.47;;;-3.20;58.30;;;;;;5072446;28;20051;-56
2021/01/16 02:16:09;;;;;;;15.20;7.85;;;-3.20;58.20;;;;;;5060935;28;20045;-59
2021/01/16 02:18:38;;;;;;;13.13;7.00;;;-3.10;58.30;;;;;;5070671;28;20036;-57
2021/01/16 02:21:05;;;;;;;13.55;7.75;;;-3.10;58.30;;;;;;5072760;28;20055;-57
2021/01/16 02:23:34;;;;;;;11.38;7.45;;;-3.20;58.20;;;;;;5071811;28;20039;-59
2021/01/16 02:26:56;;;;;;;11.73;7.65;;;-3.20;58.20;;;;;;5072704;28;20071;-57
2021/01/16 02:29:24;;;;;;;9.88;7.13;;;-3.20;58.10;;;;;;5045289;28;20029;-58
2021/01/16 02:31:56;;;;;;;8.90;6.63;;;-3.20;58.10;;;;;;5045152;28;20507;-58
2021/01/16 02:34:24;;;;;;;;;;;-3.30;58.10;;;;;;5050300;28;20078;-59
2021/01/16 02:37:15;;;;;;;10.20;6.80;;;-3.30;58.20;;;;;;5066148;28;19909;-58
2021/01/16 02:40:14;;;;;;;10.68;7.28;;;-3.30;58.50;;;;;;5062119;28;20027;-58
2021/01/16 02:42:52;;;;;;;11.98;7.63;;;-3.40;58.40;;;;;;5069813;28;20067;-59
2021/01/16 02:45:26;;;;;;;10.70;8.23;;;-3.40;58.50;;;;;;5070005;28;20020;-58
2021/01/16 02:48:14;;;;;;;11.95;8.02;;;-3.40;58.50;;;;;;5075867;28;20461;-57
2021/01/16 02:50:42;;;;;;;12.30;7.20;;;-3.40;58.60;;;;;;5063769;28;20032;-56
2021/01/16 02:53:10;;;;;;;11.98;7.45;;;-3.40;58.40;;;;;;5064861;28;20065;-59
2021/01/16 02:55:36;;;;;;;12.07;6.93;;;-3.40;58.30;;;;;;5075644;28;20064;-58
2021/01/16 02:58:02;;;;;;;8.73;6.03;;;-3.40;58.30;;;;;;5075452;28;20267;-59
2021/01/16 03:00:28;;;;;;;9.77;6.78;;;-3.40;58.40;;;;;;5075955;28;20025;-56
2021/01/16 03:02:54;;;;;;;10.10;6.75;;;-3.40;58.50;;;;;;5075469;28;20043;-58
2021/01/16 03:05:20;;;;;;;10.80;6.72;;;-3.40;58.40;;;;;;5075816;28;20036;-58
2021/01/16 03:07:48;;;;;;;12.27;7.10;;;-3.40;58.40;;;;;;5075675;28;20051;-56
2021/01/16 03:10:15;;;;;;;12.02;7.25;;;-3.40;58.40;;;;;;5075697;28;20028;-57
2021/01/16 03:12:42;;;;;;;11.50;7.45;;;-3.50;58.50;;;;;;5075763;28;20039;-59
2021/01/16 03:15:11;;;;;;;11.07;7.82;;;-3.40;58.40;;;;;;5060538;28;20048;-58
2021/01/16 03:17:50;;;;;;;12.68;7.60;;;-3.40;58.50;;;;;;5075480;28;20115;-56
2021/01/16 03:20:25;;;;;;;13.52;7.43;;;-3.40;58.50;;;;;;5073691;28;20135;-59
2021/01/16 03:22:53;;;;;;;12.35;7.88;;;-3.40;58.30;;;;;;5065691;28;20033;-56
2021/01/16 03:25:20;;;;;;;15.68;8.93;;;-3.40;58.20;;;;;;5075059;28;20030;-59
2021/01/16 03:27:47;;;;;;;11.68;7.18;;;-3.40;58.40;;;;;;5075517;28;20070;-59
2021/01/16 03:30:15;;;;;;;13.18;7.55;;;-3.40;58.40;;;;;;5074757;28;20040;-59
2021/01/16 03:32:42;;;;;;;12.88;7.45;;;-3.30;58.60;;;;;;5068529;28;20535;-57
2021/01/16 03:35:08;;;;;;;10.30;6.78;;;-3.40;58.50;;;;;;5068827;28;20484;-60
2021/01/16 03:37:34;;;;;;;10.95;7.10;;;-3.30;58.50;;;;;;5065553;28;20029;-58
2021/01/16 03:40:00;;;;;;;11.75;7.30;;;-3.30;58.40;;;;;;5071342;28;20464;-58
2021/01/16 03:42:25;;;;;;;12.40;7.38;;;-3.30;58.40;;;;;;5068961;28;20032;-59
2021/01/16 03:44:51;;;;;;;10.43;6.60;;;-3.30;58.40;;;;;;5073929;28;20402;-56
2021/01/16 03:47:17;;;;;;;15.55;8.57;;;-3.30;58.40;;;;;;5074094;28;20431;-59
2021/01/16 03:49:42;;;;;;;11.50;7.78;;;-3.20;58.50;;;;;;5068503;28;20028;-57
2021/01/16 03:52:08;;;;;;;11.95;7.40;;;-3.20;58.50;;;;;;5062665;28;20385;-59
2021/01/16 03:54:34;;;;;;;12.60;8.32;;;-3.20;58.50;;;;;;5068435;28;20040;-57
2021/01/16 03:57:00;;;;;;;17.23;9.95;;;-3.20;58.40;;;;;;5068691;28;20021;-58
2021/01/16 03:59:26;;;;;;;12.77;8.68;;;-3.10;58.30;;;;;;5058143;28;20373;-57
2021/01/16 04:01:52;;;;;;;13.48;8.25;;;-3.10;58.40;;;;;;5067381;28;20265;-58
2021/01/16 04:04:18;;;;;;;15.02;8.73;;;-3.10;58.50;;;;;;5068706;28;20036;-59
2021/01/16 04:06:44;;;;;;;16.02;8.95;;;-3.10;58.50;;;;;;5074700;28;20025;-58
2021/01/16 04:09:10;;;;;;;15.13;8.70;;;-3.10;58.50;;;;;;5063957;28;20079;-58
2021/01/16 04:11:35;;;;;;;16.02;9.57;;;-3.10;58.50;;;;;;5058040;28;20017;-57
2021/01/16 04:14:01;;;;;;;14.80;10.18;;;-3.00;58.60;;;;;;5068389;28;20179;-58
2021/01/16 04:16:27;;;;;;;17.75;10.05;;;-3.00;58.60;;;;;;5069739;28;20444;-58
2021/01/16 04:18:53;;;;;;;11.73;7.22;;;-3.00;58.60;;;;;;5064175;28;20460;-58
2021/01/16 04:21:20;;;;;;;17.15;9.90;;;-3.00;58.70;;;;;;5063879;28;20354;-58
2021/01/16 04:23:45;;;;;;;16.30;9.60;;;-2.90;58.90;;;;;;5074140;28;20492;-58
2021/01/16 04:26:11;;;;;;;18.77;10.70;;;-2.90;58.90;;;;;;5065261;28;20061;-59
2021/01/16 04:28:37;;;;;;;17.50;10.10;;;-2.90;58.90;;;;;;5072698;28;20476;-59
2021/01/16 04:31:03;;;;;;;14.15;8.70;;;-2.90;58.90;;;;;;5073164;28;20059;-58
2021/01/16 04:33:28;;;;;;;12.40;8.07;;;-2.90;58.70;;;;;;5073588;28;20025;-56
2021/01/16 04:35:54;;;;;;;14.75;8.70;;;-2.80;58.40;;;;;;5072885;28;20050;-57
2021/01/16 04:38:20;;;;;;;17.08;9.07;;;-2.80;58.60;;;;;;5074032;28;20089;-57
2021/01/16 04:40:46;;;;;;;15.77;10.75;;;-2.80;58.80;;;;;;5073641;28;20028;-57
2021/01/16 04:43:13;;;;;;;15.95;9.25;;;-2.80;58.80;;;;;;5074105;28;20028;-59
2021/01/16 04:45:40;;;;;;;16.33;10.00;;;-2.70;58.70;;;;;;5073776;28;20020;-59
2021/01/16 04:48:08;;;;;;;12.23;7.65;;;-2.70;58.70;;;;;;5073890;28;20021;-59
2021/01/16 04:50:38;;;;;;;14.10;8.45;;;-2.70;58.80;;;;;;5073847;28;20024;-57
2021/01/16 04:53:08;;;;;;;10.65;7.47;;;-2.70;58.80;;;;;;5072812;28;20392;-57
2021/01/16 04:55:38;;;;;;;12.73;8.88;;;-2.70;58.70;;;;;;5073991;28;20510;-56
2021/01/16 04:58:08;;;;;;;12.70;8.32;;;-2.70;58.80;;;;;;5073376;28;20031;-59
2021/01/16 05:00:36;;;;;;;16.08;9.32;;;-2.70;58.80;;;;;;5073524;28;20033;-58
2021/01/16 05:03:08;;;;;;;18.17;10.25;;;-2.70;59.00;;;;;;5070026;28;20507;-59
2021/01/16 05:05:36;;;;;;;;;;;-2.70;58.90;;;;;;5070955;28;20013;-56
2021/01/16 05:08:02;;;;;;;15.57;8.85;;;-2.80;58.60;;;;;;5073035;28;19944;-57
2021/01/16 05:10:38;;;;;;;12.02;8.50;;;-2.80;58.90;;;;;;5065515;28;20518;-59
2021/01/16 05:13:13;;;;;;;12.88;9.30;;;-2.70;58.90;;;;;;5069408;28;20032;-58
2021/01/16 05:15:40;;;;;;;17.35;9.80;;;-2.70;58.80;;;;;;5073476;28;20112;-58
2021/01/16 05:18:26;;;;;;;18.55;11.35;;;-2.70;58.90;;;;;;5072228;28;20385;-59
2021/01/16 05:20:52;;;;;;;16.00;9.05;;;-2.60;59.00;;;;;;5066664;28;20058;-59
2021/01/16 05:23:18;;;;;;;18.27;11.05;;;-2.70;59.00;;;;;;5071750;28;20048;-59
2021/01/16 05:25:49;;;;;;;17.75;10.27;;;-2.70;59.00;;;;;;5073279;28;20060;-59
2021/01/16 05:28:17;;;;;;;14.73;8.88;;;-2.60;59.00;;;;;;5073382;28;20028;-59
2021/01/16 05:31:00;;;;;;;13.20;8.02;;;-2.60;58.90;;;;;;5066430;28;20020;-59
2021/01/16 05:33:31;;;;;;;15.27;9.15;;;-2.50;58.70;;;;;;5071066;28;20380;-58
2021/01/16 05:36:02;;;;;;;12.13;8.45;;;-2.50;58.70;;;;;;5072135;28;20044;-60
2021/01/16 05:38:35;;;;;;;15.40;8.63;;;-2.50;58.80;;;;;;5066980;28;20044;-57
2021/01/16 05:41:13;;;;;;;13.98;8.60;;;-2.40;58.90;;;;;;5073204;28;20077;-58
2021/01/16 05:43:42;;;;;;;13.32;8.95;;;-2.40;58.90;;;;;;5073145;28;20108;-59
2021/01/16 05:46:13;;;;;;;13.88;8.65;;;-2.40;59.00;;;;;;5059697;28;20100;-57
2021/01/16 05:48:39;;;;;;;17.40;11.43;;;-2.40;58.90;;;;;;5072939;28;20024;-58
2021/01/16 05:51:06;;;;;;;16.48;9.35;;;-2.40;59.00;;;;;;5070275;28;20027;-57
2021/01/16 05:53:33;;;;;;;19.45;11.50;;;-2.40;59.00;;;;;;5064275;28;20040;-58
2021/01/16 05:55:59;;;;;;;22.48;13.40;;;-2.40;58.90;;;;;;5071681;28;20036;-57
2021/01/16 05:58:34;;;;;;;16.55;10.52;;;-2.40;59.20;;;;;;5072817;28;20060;-58
2021/01/16 06:01:07;;;;;;;20.27;12.85;;;-2.40;59.10;;;;;;5067359;28;20024;-57
2021/01/16 06:03:37;;;;;;;25.45;13.48;;;-2.30;59.30;;;;;;5065409;28;20396;-59
2021/01/16 06:06:10;;;;;;;16.67;9.98;;;-2.30;59.50;;;;;;5072245;28;20021;-59
2021/01/16 06:08:54;;;;;;;20.50;12.27;;;-2.30;59.30;;;;;;5061273;28;20021;-59
2021/01/16 06:11:20;;;;;;;24.10;12.48;;;-2.30;59.40;;;;;;5054429;28;20017;-58
2021/01/16 06:13:50;;;;;;;16.50;9.75;;;-2.20;59.40;;;;;;5065697;28;20388;-59
2021/01/16 06:16:19;;;;;;;19.23;10.57;;;-2.20;60.10;;;;;;5067962;28;20460;-58
2021/01/16 06:18:51;;;;;;;13.85;9.25;;;-2.20;59.70;;;;;;5072629;28;20131;-59
2021/01/16 06:21:32;;;;;;;15.10;10.02;;;-2.10;59.70;;;;;;5072216;28;20460;-58
2021/01/16 06:24:00;;;;;;;14.38;9.50;;;-2.10;59.70;;;;;;5063543;28;20078;-57
2021/01/16 06:26:27;;;;;;;13.07;8.77;;;-2.00;59.60;;;;;;5072419;28;20380;-57
2021/01/16 06:29:02;;;;;;;13.52;8.60;;;-2.10;59.70;;;;;;5066584;28;20021;-59
2021/01/16 06:31:30;;;;;;;18.20;10.85;;;-2.00;59.60;;;;;;5070898;28;20100;-60
2021/01/16 06:34:02;;;;;;;12.95;9.05;;;-2.00;59.40;;;;;;5071143;28;20464;-58
2021/01/16 06:36:31;;;;;;;15.73;9.13;;;-2.10;59.40;;;;;;5063407;28;20052;-59
2021/01/16 06:39:00;;;;;;;13.02;8.48;;;-2.10;59.90;;;;;;5071886;28;20476;-59
2021/01/16 06:41:31;;;;;;;13.93;8.07;;;-2.30;59.30;;;;;;5071173;28;20036;-59
2021/01/16 06:43:58;;;;;;;12.48;8.25;;;-2.40;59.40;;;;;;5067089;28;20068;-59
2021/01/16 06:46:46;;;;;;;15.77;8.77;;;-2.60;59.40;;;;;;5071758;28;20033;-58
2021/01/16 06:49:28;;;;;;;11.27;7.63;;;-2.70;59.60;;;;;;5058876;28;20024;-59
2021/01/16 06:52:07;;;;;;;15.38;9.38;;;-2.90;59.70;;;;;;5070332;28;20021;-59
2021/01/16 06:54:38;;;;;;;16.63;9.15;;;-3.00;59.70;;;;;;5059858;28;20369;-59
2021/01/16 06:57:05;;;;;;;15.15;9.27;;;-3.10;59.80;;;;;;5068713;28;20465;-59
2021/01/16 06:59:32;;;;;;;14.25;9.48;;;-3.20;59.80;;;;;;5062947;28;20036;-55
2021/01/16 07:01:58;;;;;;;14.55;9.32;;;-3.30;59.70;;;;;;5066607;28;20035;-55
2021/01/16 07:04:27;;;;;;;17.33;9.23;;;-3.50;59.30;;;;;;5061996;28;20341;-60
2021/01/16 07:06:55;;;;;;;14.32;9.13;;;-3.80;59.60;;;;;;5061778;28;20021;-59
2021/01/16 07:09:23;;;;;;;14.77;9.48;;;-4.00;60.10;;;;;;5060227;28;20867;-61
2021/01/16 07:11:53;;;;;;;13.23;8.45;;;-4.10;60.30;;;;;;5058529;28;20124;-61
2021/01/16 07:14:20;;;;;;;15.57;10.10;;;-4.20;60.40;;;;;;5060991;28;20033;-60
2021/01/16 07:16:49;;;;;;;13.27;8.45;;;-4.30;60.50;;;;;;5059331;28;20052;-60
2021/01/16 07:19:23;;;;;;;11.05;7.15;;;-4.30;60.50;;;;;;5062434;28;20036;-60
2021/01/16 07:21:49;;;;;;;9.73;7.05;;;-4.30;60.50;;;;;;5061790;28;20043;-59
2021/01/16 07:24:17;;;;;;;13.18;7.57;;;-4.40;60.30;;;;;;5057511;28;20428;-59
2021/01/16 07:26:48;;;;;;;13.60;8.23;;;-4.50;60.10;;;;;;5066359;28;20017;-59
2021/01/16 07:29:15;;;;;;;10.82;6.72;;;-4.50;60.10;;;;;;5063489;28;20104;-59
2021/01/16 07:31:43;;;;;;;10.25;6.55;;;-4.50;60.20;;;;;;5059108;28;20426;-60
2021/01/16 07:34:09;;;;;;;10.40;6.65;;;-4.60;60.00;;;;;;5067349;28;20063;-60
2021/01/16 07:36:36;;;;;;;8.73;6.28;;;-4.70;60.00;;;;;;5065888;28;20125;-59
2021/01/16 07:39:04;;;;;;;10.18;6.38;;;-4.70;60.10;;;;;;5061482;28;20033;-58
2021/01/16 07:41:32;;;;;;;9.38;5.93;;;-4.70;60.20;;;;;;5066324;28;20065;-60
2021/01/16 07:44:07;;;;;;;11.90;6.50;;;-4.70;60.10;;;;;;5063877;28;20099;-59
2021/01/16 07:46:34;;;;;;;12.15;7.22;;;-4.80;59.90;;;;;;5059691;28;20028;-60
2021/01/16 07:49:02;;;;;;;10.45;6.50;;;-4.80;60.10;;;;;;5070237;28;20024;-61
2021/01/16 07:51:34;;;;;;;11.07;6.95;;;-4.90;60.20;;;;;;5065621;28;20025;-60
2021/01/16 07:54:02;;;;;;;9.05;6.10;;;-4.90;60.30;;;;;;5066307;28;20042;-60
2021/01/16 07:56:37;;;;;;;10.75;6.38;;;-4.90;60.40;;;;;;5066696;28;20029;-60
2021/01/16 07:59:19;;;;;;;10.20;6.63;;;-4.80;60.30;;;;;;5067158;28;20522;-60
2021/01/16 08:02:05;;;;;;;11.90;6.70;;;-4.80;60.30;;;;;;5069286;28;20547;-58
2021/01/16 08:04:49;;;;;;;10.32;6.68;;;-4.80;60.40;;;;;;5069457;28;20115;-60
2021/01/16 08:07:23;;;;;;;10.05;6.43;;;-4.80;60.20;;;;;;5063017;28;20033;-59
2021/01/16 08:09:48;;;;;;;8.57;6.18;;;-4.80;60.10;;;;;;5072485;28;20020;-60
2021/01/16 08:12:16;;;;;;;12.48;6.97;;;-4.90;60.00;;;;;;5063206;28;20024;-59
2021/01/16 08:14:42;;;;;;;10.48;6.68;;;-4.90;60.00;;;;;;5067197;28;20718;-60
2021/01/16 08:17:19;;;;;;;10.55;6.50;;;-4.90;60.00;;;;;;5064862;28;20025;-61
2021/01/16 08:20:00;;;;;;;12.30;6.65;;;-4.90;60.90;;;;;;5063024;28;20575;-59
2021/01/16 08:22:39;;;;;;;11.65;6.50;;;-4.90;60.20;;;;;;5064768;28;20032;-61
2021/01/16 08:25:15;;;;;;;10.23;6.47;;;-4.90;60.20;;;;;;5057946;28;20473;-60
2021/01/16 08:27:48;;;;;;;12.10;6.72;;;-4.90;60.20;;;;;;5060709;28;20095;-61
2021/01/16 08:30:16;;;;;;;10.85;6.70;;;-4.90;60.10;;;;;;5063065;28;20021;-59
2021/01/16 08:33:07;;;;;;;11.65;6.43;;;-4.90;60.00;;;;;;5069559;28;20020;-61
2021/01/16 08:35:43;;;;;;;11.67;7.17;;;-5.00;60.00;;;;;;5070233;28;20044;-59
2021/01/16 08:38:17;;;;;;;10.82;6.35;;;-5.00;59.90;;;;;;5062523;28;20341;-59
2021/01/16 08:41:07;;;;;;;11.43;7.20;;;-5.00;60.00;;;;;;5066037;28;20835;-58
2021/01/16 08:43:39;;;;;;;14.63;9.05;;;-5.00;60.10;;;;;;5063923;28;20045;-60
2021/01/16 08:46:18;;;;;;;11.93;8.32;;;-5.00;60.30;;;;;;5067880;28;20027;-59
2021/01/16 08:49:00;;;;;;;10.60;6.90;;;-4.90;60.20;;;;;;5068226;28;20052;-61
2021/01/16 08:51:33;;;;;;;10.55;7.28;;;-4.90;59.80;;;;;;5064036;28;20545;-61
2021/01/16 08:54:23;;;;;;;10.18;6.90;;;-4.90;59.70;;;;;;5061166;28;20040;-61
2021/01/16 08:56:49;;;;;;;10.70;7.25;;;-4.90;59.60;;;;;;5058838;28;20071;-59
2021/01/16 08:59:15;;;;;;;10.60;7.65;;;-4.90;59.40;;;;;;5061751;28;20033;-60
2021/01/16 09:01:41;;;;;;;11.18;7.28;;;-5.00;59.40;;;;;;5062995;28;21617;-61
2021/01/16 09:04:22;;;;;;;11.65;7.05;;;-5.00;59.50;;;;;;5062765;28;20059;-59
2021/01/16 09:06:49;;;;;;;10.85;6.60;;;-5.00;59.30;;;;;;5062716;28;20370;-58
2021/01/16 09:09:27;;;;;;;9.80;6.40;;;-5.00;59.20;;;;;;5063652;28;20052;-59
2021/01/16 09:12:08;;;;;;;9.02;6.35;;;-5.10;59.10;;;;;;5064424;28;20025;-57
2021/01/16 09:14:38;;;;;;;10.18;6.40;;;-5.10;59.90;;;;;;5062319;28;20033;-59
2021/01/16 09:17:18;;;;;;;13.13;6.93;;;-5.10;59.40;;;;;;5062623;28;20036;-58
2021/01/16 09:19:43;;;;;;;10.73;6.93;;;-5.10;59.60;;;;;;5061481;28;20033;-59
2021/01/16 09:22:31;;;;;;;11.93;6.47;;;-5.10;59.90;;;;;;5066772;28;20538;-57
2021/01/16 09:25:22;;;;;;;11.23;6.43;;;-5.10;59.30;;;;;;5064378;28;20043;-54
2021/01/16 09:27:49;;;;;;;11.35;6.80;;;-5.10;59.30;;;;;;5064547;28;20507;-58
2021/01/16 09:30:27;;;;;;;10.48;7.13;;;-5.10;59.40;;;;;;5064302;28;20119;-57
2021/01/16 09:32:53;;;;;;;11.50;7.63;;;-5.10;59.30;;;;;;5062425;28;20062;-57
2021/01/16 09:35:36;;;;;;;12.23;7.03;;;-5.10;59.40;;;;;;5063795;28;20036;-56
2021/01/16 09:38:04;;;;;;;10.68;6.68;;;-5.10;59.30;;;;;;5065515;28;20123;-57
2021/01/16 09:40:36;;;;;;;9.27;7.40;;;-5.10;59.40;;;;;;5062552;28;20115;-58
2021/01/16 09:43:21;;;;;;;11.52;7.47;;;-5.10;59.50;;;;;;5066663;28;20052;-56
2021/01/16 09:46:05;;;;;;;10.73;6.95;;;-5.10;59.50;;;;;;5055977;28;20025;-58
2021/01/16 09:48:31;;;;;;;12.30;7.47;;;-5.10;59.60;;;;;;5062687;28;20025;-56
2021/01/16 09:51:01;;;;;;;9.23;6.38;;;-5.00;59.70;;;;;;5059308;28;20036;-56
2021/01/16 09:53:28;;;;;;;9.05;6.50;;;-5.00;59.90;;;;;;5065803;28;20048;-57
2021/01/16 09:55:55;;;;;;;11.68;6.72;;;-4.90;59.80;;;;;;5062267;28;20060;-57
2021/01/16 09:58:39;;;;;;;10.45;6.35;;;-4.80;60.00;;;;;;5062149;28;20123;-57
2021/01/16 10:01:23;;;;;;;12.70;7.47;;;-4.70;59.90;;;;;;5061854;28;20067;-58
2021/01/16 10:03:50;;;;;;;11.93;7.20;;;-4.60;59.60;;;;;;5061863;28;20036;-57
2021/01/16 10:06:19;;;;;;;10.05;6.82;;;-4.50;59.40;;;;;;5060930;28;20028;-58
2021/01/16 10:08:47;;;;;;;9.60;7.00;;;-4.50;59.10;;;;;;5060449;28;20107;-58
2021/01/16 10:11:14;;;;;;;11.93;6.90;;;-4.50;58.60;;;;;;5061565;28;20495;-58
2021/01/16 10:13:41;;;;;;;12.88;7.40;;;-4.50;58.30;;;;;;5057631;28;20028;-58
2021/01/16 10:16:11;;;;;;;10.32;6.75;;;-4.50;58.10;;;;;;5061998;28;20032;-58
2021/01/16 10:18:39;;;;;;;9.90;7.00;;;-4.40;58.40;;;;;;5063379;28;20037;-59
2021/01/16 10:21:10;;;;;;;12.73;6.78;;;-4.40;58.30;;;;;;5062660;28;20055;-59
2021/01/16 10:23:41;;;;;;;13.02;7.15;;;-4.40;57.80;;;;;;5063018;28;20032;-58
2021/01/16 10:26:07;;;;;;;10.60;6.85;;;-4.30;57.50;;;;;;5057395;28;20035;-58
2021/01/16 10:28:38;;;;;;;14.07;6.80;;;-4.30;57.00;;;;;;5058141;28;20132;-58
2021/01/16 10:31:09;;;;;;;11.05;7.18;;;-4.40;56.90;;;;;;5060197;28;20417;-57
2021/01/16 10:33:43;;;;;;;13.53;8.13;;;-4.50;56.70;;;;;;5060129;28;20112;-58
2021/01/16 10:36:13;;;;;;;12.10;7.05;;;-4.50;56.50;;;;;;5060728;28;20041;-57
2021/01/16 10:38:49;;;;;;;13.45;7.32;;;-4.60;56.50;;;;;;5061683;28;20499;-58
2021/01/16 10:41:21;;;;;;;11.65;7.65;;;-4.60;56.80;;;;;;5063102;28;20032;-58
2021/01/16 10:43:58;;;;;;;10.63;6.88;;;-4.50;57.10;;;;;;5054864;28;20447;-58
2021/01/16 10:46:29;;;;;;;13.32;7.47;;;-4.40;56.50;;;;;;5057248;28;20025;-58
2021/01/16 10:49:11;;;;;;;11.48;7.30;;;-4.40;56.50;;;;;;5059336;28;20035;-58
2021/01/16 10:51:38;;;;;;;;;;;-4.30;56.40;;;;;;5061790;28;20074;-59
2021/01/16 10:54:07;;;;;;;10.48;6.93;;;-4.30;56.00;;;;;;5058043;28;20295;-58
2021/01/16 10:56:34;;;;;;;14.52;8.00;;;-4.30;56.20;;;;;;5065672;28;20032;-58
2021/01/16 10:59:13;;;;;;;13.98;6.97;;;-4.30;55.80;;;;;;5060285;28;20034;-58
2021/01/16 11:01:48;;;;;;;10.13;6.80;;;-4.20;55.70;;;;;;5063314;28;20043;-59
2021/01/16 11:04:25;;;;;;;11.68;6.70;;;-4.20;55.80;;;;;;5066103;28;20108;-59
2021/01/16 11:06:59;;;;;;;10.55;6.47;;;-4.20;55.60;;;;;;5066490;28;20021;-57
2021/01/16 11:09:34;;;;;;;10.45;6.43;;;-4.30;55.20;;;;;;5070470;28;21712;-59
2021/01/16 11:12:09;;;;;;;14.30;6.75;;;-4.30;54.90;;;;;;5064483;28;20881;-60
2021/01/16 11:14:39;;;;;;;10.63;6.07;;;-4.30;55.10;;;;;;5064902;28;20562;-57
2021/01/16 11:17:07;;;;;;;14.10;6.97;;;-4.30;55.00;;;;;;5065972;28;20423;-59
2021/01/16 11:19:41;;;;;;;13.13;7.50;;;-4.30;54.80;;;;;;5068517;28;20078;-59
2021/01/16 11:22:12;;;;;;;10.13;6.88;;;-4.30;54.40;;;;;;5068670;28;20407;-57
2021/01/16 11:24:53;;;;;;;11.98;7.82;;;-4.30;54.30;;;;;;5068203;28;20105;-58
2021/01/16 11:27:27;;;;;;;13.53;7.87;;;-4.40;53.70;;;;;;5067623;28;20025;-59
2021/01/16 11:30:03;;;;;;;12.55;7.22;;;-4.50;53.30;;;;;;5069079;28;20273;-59
2021/01/16 11:32:37;;;;;;;10.68;6.63;;;-4.70;53.30;;;;;;5069093;28;20047;-59
2021/01/16 11:35:15;;;;;;;10.00;6.85;;;-4.80;53.10;;;;;;5069999;28;20056;-56
2021/01/16 11:37:49;;;;;;;11.95;7.32;;;-4.90;53.10;;;;;;5067253;28;20041;-58
2021/01/16 11:40:33;;;;;;;14.05;8.05;;;-5.10;53.00;;;;;;5067528;28;20061;-58
2021/01/16 11:43:07;;;;;;;10.25;7.20;;;-5.20;52.70;;;;;;5069046;28;20032;-58
2021/01/16 11:45:33;;;;;;;9.82;6.10;;;-5.40;52.70;;;;;;5068212;28;20024;-56
2021/01/16 11:48:00;;;;;;;10.95;6.93;;;-5.60;52.90;;;;;;5067532;28;20033;-58
2021/01/16 11:50:27;;;;;;;9.93;6.05;;;-5.60;53.50;;;;;;5067570;28;20035;-56
2021/01/16 11:52:53;;;;;;;11.55;7.13;;;-5.60;53.40;;;;;;5071936;28;20040;-59
2021/01/16 11:55:20;;;;;;;11.63;6.72;;;-5.50;53.90;;;;;;5063744;28;20044;-58
2021/01/16 11:57:46;;;;;;;11.43;7.82;;;-5.50;53.70;;;;;;5059104;28;20032;-59
2021/01/16 12:00:16;;;;;;;10.90;6.85;;;-5.40;53.70;;;;;;5061449;28;20043;-58
2021/01/16 12:02:51;;;;;;;14.00;7.93;;;-5.40;53.50;;;;;;5068637;28;20025;-56
2021/01/16 12:05:18;;;;;;;14.90;7.30;;;-5.50;53.30;;;;;;5066027;28;20518;-59
2021/01/16 12:07:58;;;;;;;10.65;7.22;;;-5.50;53.10;;;;;;5064625;28;20032;-55
2021/01/16 12:10:24;;;;;;;13.82;6.90;;;-5.60;53.20;;;;;;5063660;28;20024;-57
2021/01/16 12:12:50;;;;;;;11.45;7.05;;;-5.70;53.30;;;;;;5065332;28;20350;-57
2021/01/16 12:15:18;;;;;;;12.52;8.30;;;-5.70;53.00;;;;;;5067044;28;20063;-58
2021/01/16 12:17:49;;;;;;;12.70;8.10;;;-5.70;53.30;;;;;;5068814;28;20107;-58
2021/01/16 12:20:16;;;;;;;11.57;7.20;;;-5.80;53.30;;;;;;5061272;28;20063;-59
2021/01/16 12:22:44;;;;;;;13.95;7.00;;;-5.80;53.20;;;;;;5070458;28;20060;-55
2021/01/16 12:25:12;;;;;;;11.55;7.45;;;-5.80;53.20;;;;;;5063466;28;20115;-59
2021/01/16 12:27:49;;;;;;;12.50;7.30;;;-5.90;53.00;;;;;;5063830;28;20238;-58
2021/01/16 12:30:19;;;;;;;12.38;7.28;;;-5.90;53.20;;;;;;5067199;28;20036;-59
2021/01/16 12:32:45;;;;;;;9.43;7.30;;;-6.00;53.10;;;;;;5071078;28;20056;-58
2021/01/16 12:35:12;;;;;;;13.45;8.05;;;-6.00;53.20;;;;;;5062813;28;20079;-59
2021/01/16 12:37:39;;;;;;;12.35;7.85;;;-6.10;53.10;;;;;;5063253;28;20468;-58
2021/01/16 12:40:17;;;;;;;11.73;7.13;;;-6.10;53.10;;;;;;5067221;28;20020;-58
2021/01/16 12:42:43;;;;;;;10.52;7.25;;;-6.10;53.00;;;;;;5065027;28;20036;-58
2021/01/16 12:45:15;;;;;;;15.38;7.45;;;-6.20;52.80;;;;;;5066146;28;20087;-59
2021/01/16 12:47:43;;;;;;;10.45;7.78;;;-6.20;52.90;;;;;;5065107;28;20024;-57
2021/01/16 12:50:09;;;;;;;14.43;8.57;;;-6.20;52.80;;;;;;5065473;28;20136;-58
2021/01/16 12:52:36;;;;;;;11.77;7.43;;;-6.20;53.10;;;;;;5064234;28;20485;-59
2021/01/16 12:55:08;;;;;;;10.90;7.07;;;-6.20;53.00;;;;;;5065696;28;20064;-59